Time;durP1;ratioP1;P1;durP2;ratioP2;P2;SDS_P1;SDS_P2;PMS_P1;PMS_P2;Temp;Humidity;BMP_temperature;BMP_pressure;BME280_temperature;BME280_humidity;BME280_pressure;Samples;Min_cycle;Max_cycle;Signal;HPM_P1;HPM_P2
2023/08/12 00:01:25;;;;;;;8.98;4.72;;;19.00;99.90;;;;;;5039929;28;20972;-78
2023/08/12 00:03:51;;;;;;;8.90;5.13;;;19.00;99.90;;;;;;5060680;28;20044;-76
2023/08/12 00:06:17;;;;;;;8.10;4.50;;;18.90;99.90;;;;;;5034767;28;20051;-77
2023/08/12 00:08:43;;;;;;;9.80;4.50;;;18.90;99.90;;;;;;5048668;28;20067;-74
2023/08/12 00:11:09;;;;;;;11.57;4.78;;;19.00;99.90;;;;;;5069826;28;20083;-78
2023/08/12 00:13:35;;;;;;;9.10;4.63;;;18.90;99.90;;;;;;5042082;28;20235;-78
2023/08/12 00:16:00;;;;;;;8.25;4.43;;;18.90;99.90;;;;;;5067093;28;20404;-75
2023/08/12 00:18:26;;;;;;;6.82;4.55;;;18.80;99.90;;;;;;5037788;28;20576;-74
2023/08/12 00:20:53;;;;;;;8.18;4.85;;;18.80;99.90;;;;;;5053933;28;20051;-75
2023/08/12 00:23:18;;;;;;;9.98;5.22;;;18.80;99.90;;;;;;5066446;28;20047;-74
2023/08/12 00:25:44;;;;;;;11.43;4.63;;;18.80;99.90;;;;;;5050350;28;20071;-74
2023/08/12 00:28:10;;;;;;;9.05;4.85;;;18.70;99.90;;;;;;5064111;28;20047;-76
2023/08/12 00:30:36;;;;;;;9.02;5.00;;;18.70;99.90;;;;;;5062819;28;21253;-78
2023/08/12 00:33:02;;;;;;;7.72;4.88;;;18.60;99.90;;;;;;5061209;28;20388;-75
2023/08/12 00:35:28;;;;;;;10.15;4.88;;;18.60;99.90;;;;;;5062400;28;20054;-75
2023/08/12 00:37:53;;;;;;;7.05;4.47;;;18.60;99.90;;;;;;5065244;28;20040;-74
2023/08/12 00:40:19;;;;;;;12.32;4.82;;;18.60;99.90;;;;;;5059675;28;20040;-74
2023/08/12 00:42:46;;;;;;;8.73;4.80;;;18.60;99.90;;;;;;5062687;28;20083;-78
2023/08/12 00:45:13;;;;;;;9.30;4.90;;;18.50;99.90;;;;;;5047169;28;20059;-74
2023/08/12 00:47:39;;;;;;;8.85;4.60;;;18.50;99.90;;;;;;5060398;28;20123;-74
2023/08/12 00:50:07;;;;;;;9.30;4.43;;;18.50;99.90;;;;;;5059442;28;20885;-78
2023/08/12 00:52:33;;;;;;;9.20;4.35;;;18.20;99.90;;;;;;5065787;28;20435;-75
2023/08/12 00:54:59;;;;;;;8.20;4.22;;;18.40;99.90;;;;;;5050881;28;20054;-75
2023/08/12 00:57:26;;;;;;;6.72;4.00;;;18.40;99.90;;;;;;5061274;28;21123;-79
2023/08/12 00:59:53;;;;;;;6.43;4.40;;;18.40;99.90;;;;;;5040789;28;20044;-75
2023/08/12 01:02:19;;;;;;;9.55;4.63;;;18.30;99.90;;;;;;5065226;28;20047;-75
2023/08/12 01:04:44;;;;;;;6.68;3.80;;;18.30;99.90;;;;;;5067193;28;20062;-76
2023/08/12 01:07:11;;;;;;;12.43;4.47;;;18.30;99.90;;;;;;5053955;28;20044;-74
2023/08/12 01:09:37;;;;;;;8.38;4.03;;;18.30;99.90;;;;;;5065480;28;20247;-75
2023/08/12 01:12:30;;;;;;;10.25;4.72;;;18.30;99.90;;;;;;5065701;28;20048;-76
2023/08/12 01:14:58;;;;;;;7.88;4.00;;;18.30;99.90;;;;;;5077538;28;20052;-76
2023/08/12 01:17:28;;;;;;;7.18;3.90;;;18.30;99.90;;;;;;5051703;28;20065;-75
2023/08/12 01:19:55;;;;;;;9.75;4.25;;;18.30;99.90;;;;;;5053526;28;20096;-74
2023/08/12 01:22:25;;;;;;;10.88;3.95;;;18.30;99.90;;;;;;5063748;28;20565;-77
2023/08/12 01:24:52;;;;;;;8.82;4.40;;;18.30;99.90;;;;;;5064342;28;20312;-77
2023/08/12 01:27:18;;;;;;;8.07;3.92;;;18.30;99.90;;;;;;5043202;28;20101;-78
2023/08/12 01:29:50;;;;;;;6.60;3.55;;;18.30;99.90;;;;;;5045049;28;20052;-77
2023/08/12 01:32:37;;;;;;;7.85;4.18;;;18.30;99.90;;;;;;5059501;28;20047;-76
2023/08/12 01:35:12;;;;;;;9.57;4.30;;;18.30;99.90;;;;;;5063461;28;20052;-77
2023/08/12 01:37:39;;;;;;;8.30;3.97;;;18.40;99.90;;;;;;5043662;28;20932;-75
2023/08/12 01:40:06;;;;;;;8.82;4.22;;;18.40;99.90;;;;;;5043525;28;20055;-77
2023/08/12 01:42:36;;;;;;;8.32;4.55;;;18.40;99.90;;;;;;5055925;28;20104;-76
2023/08/12 01:45:02;;;;;;;7.90;4.35;;;18.50;99.90;;;;;;5063684;28;20040;-76
2023/08/12 01:47:28;;;;;;;11.40;4.57;;;18.50;99.90;;;;;;5061183;28;20102;-75
2023/08/12 01:49:55;;;;;;;8.30;4.50;;;18.50;99.90;;;;;;5046975;28;20112;-76
2023/08/12 01:52:21;;;;;;;8.88;4.97;;;18.50;99.90;;;;;;5044585;28;20475;-74
2023/08/12 01:54:47;;;;;;;11.23;5.20;;;18.60;99.90;;;;;;5059480;28;20093;-76
2023/08/12 01:57:13;;;;;;;11.35;5.72;;;18.60;99.90;;;;;;5042433;28;20040;-74
2023/08/12 01:59:39;;;;;;;11.00;5.90;;;18.60;99.90;;;;;;5044323;28;20177;-75
2023/08/12 02:02:05;;;;;;;11.57;5.10;;;18.70;99.90;;;;;;5063142;28;20127;-74
2023/08/12 02:04:31;;;;;;;8.02;5.40;;;18.70;99.90;;;;;;5031213;28;20077;-75
2023/08/12 02:06:57;;;;;;;10.00;5.18;;;18.70;99.90;;;;;;5062729;28;21425;-74
2023/08/12 02:09:23;;;;;;;10.27;5.57;;;18.70;99.90;;;;;;5050351;28;20139;-75
2023/08/12 02:11:49;;;;;;;10.07;5.25;;;18.80;99.90;;;;;;5066333;28;20084;-76
2023/08/12 02:14:16;;;;;;;9.15;5.60;;;18.80;99.90;;;;;;5069177;28;20071;-76
2023/08/12 02:16:41;;;;;;;10.20;6.10;;;18.80;99.90;;;;;;5051285;28;20052;-74
2023/08/12 02:19:07;;;;;;;11.95;5.88;;;18.80;99.90;;;;;;5050616;28;20437;-74
2023/08/12 02:21:33;;;;;;;12.40;6.70;;;18.90;99.90;;;;;;5061342;28;20040;-74
2023/08/12 02:23:59;;;;;;;11.32;5.88;;;18.90;99.90;;;;;;5037440;28;20427;-75
2023/08/12 02:26:25;;;;;;;7.57;5.72;;;18.90;99.90;;;;;;5059923;28;20074;-76
2023/08/12 02:28:51;;;;;;;10.88;6.07;;;18.90;99.90;;;;;;5058944;28;20126;-77
2023/08/12 02:31:17;;;;;;;11.82;6.18;;;19.00;99.90;;;;;;5054420;28;20130;-76
2023/08/12 02:33:43;;;;;;;11.43;6.55;;;18.90;99.90;;;;;;5052304;28;20040;-75
2023/08/12 02:36:09;;;;;;;12.20;6.38;;;18.90;99.90;;;;;;5034997;28;20036;-75
2023/08/12 02:38:36;;;;;;;11.15;6.07;;;19.00;99.90;;;;;;5045283;28;20054;-77
2023/08/12 02:41:02;;;;;;;10.30;6.07;;;18.90;99.90;;;;;;5064293;28;20052;-75
2023/08/12 02:43:28;;;;;;;11.85;6.28;;;19.00;99.90;;;;;;5063410;28;20043;-75
2023/08/12 02:45:53;;;;;;;9.73;6.22;;;19.00;99.90;;;;;;5063747;28;20048;-75
2023/08/12 02:48:19;;;;;;;10.77;6.22;;;19.00;99.90;;;;;;5059449;28;20048;-75
2023/08/12 02:50:45;;;;;;;11.45;5.88;;;19.00;99.90;;;;;;5049984;28;20114;-74
2023/08/12 02:53:11;;;;;;;11.60;6.20;;;19.10;99.90;;;;;;5050312;28;20040;-74
2023/08/12 02:55:37;;;;;;;10.93;6.38;;;19.10;99.90;;;;;;5045248;28;20063;-73
2023/08/12 02:58:04;;;;;;;10.85;6.40;;;19.10;99.90;;;;;;5030393;28;20081;-76
2023/08/12 03:00:30;;;;;;;10.05;6.30;;;19.10;99.90;;;;;;5044931;28;20048;-74
2023/08/12 03:02:56;;;;;;;10.07;5.70;;;19.10;99.90;;;;;;5045578;28;20044;-75
2023/08/12 03:05:22;;;;;;;11.13;6.32;;;19.10;99.90;;;;;;5058031;28;20040;-74
2023/08/12 03:07:49;;;;;;;12.55;5.88;;;19.10;99.90;;;;;;5059874;28;20055;-77
2023/08/12 03:10:15;;;;;;;9.63;6.15;;;19.10;99.90;;;;;;5049260;28;20108;-78
2023/08/12 03:12:41;;;;;;;12.27;5.50;;;19.10;99.90;;;;;;5050380;28;20101;-74
2023/08/12 03:15:07;;;;;;;10.05;5.47;;;19.10;99.90;;;;;;5043942;28;20044;-75
2023/08/12 03:17:33;;;;;;;10.82;5.70;;;19.10;99.90;;;;;;5042361;28;22983;-75
2023/08/12 03:19:59;;;;;;;12.43;5.82;;;19.20;99.90;;;;;;5059522;28;20055;-76
2023/08/12 03:22:27;;;;;;;9.50;5.90;;;19.20;99.90;;;;;;5042458;28;20047;-75
2023/08/12 03:24:53;;;;;;;11.88;6.07;;;19.20;99.90;;;;;;5048790;28;20149;-77
2023/08/12 03:27:20;;;;;;;12.68;7.15;;;19.20;99.90;;;;;;5030058;28;20048;-74
2023/08/12 03:29:46;;;;;;;8.88;5.95;;;19.20;99.90;;;;;;5044806;28;20055;-74
2023/08/12 03:32:12;;;;;;;11.18;6.78;;;19.20;99.90;;;;;;5046523;28;20081;-74
2023/08/12 03:34:38;;;;;;;11.07;6.38;;;19.20;99.90;;;;;;5074816;28;20170;-77
2023/08/12 03:37:04;;;;;;;11.30;7.15;;;19.20;99.90;;;;;;5050297;28;20122;-74
2023/08/12 03:39:30;;;;;;;9.98;6.05;;;19.20;99.90;;;;;;5029650;28;20044;-75
2023/08/12 03:41:56;;;;;;;12.27;6.70;;;19.20;99.90;;;;;;5047463;28;20047;-75
2023/08/12 03:44:22;;;;;;;12.52;7.22;;;19.20;99.90;;;;;;5042852;28;20056;-77
2023/08/12 03:46:48;;;;;;;10.48;7.22;;;19.30;99.90;;;;;;5041095;28;20055;-74
2023/08/12 03:49:13;;;;;;;13.43;6.95;;;19.30;99.90;;;;;;5058028;28;20039;-75
2023/08/12 03:51:39;;;;;;;12.15;6.53;;;19.30;99.90;;;;;;5060424;28;20067;-76
2023/08/12 03:54:05;;;;;;;16.70;7.30;;;19.30;99.90;;;;;;5051131;28;21191;-77
2023/08/12 03:56:31;;;;;;;12.15;6.28;;;19.30;99.90;;;;;;5043061;28;20052;-76
2023/08/12 03:58:56;;;;;;;13.32;6.72;;;19.30;99.90;;;;;;5073934;28;20048;-75
2023/08/12 04:01:22;;;;;;;13.75;7.03;;;19.30;99.90;;;;;;5061888;28;20376;-76
2023/08/12 04:03:48;;;;;;;10.55;6.32;;;19.30;99.90;;;;;;5043822;28;20063;-74
2023/08/12 04:06:14;;;;;;;13.30;6.82;;;19.30;99.90;;;;;;5060271;28;20039;-77
2023/08/12 04:08:40;;;;;;;11.38;6.07;;;19.30;99.90;;;;;;5033408;28;20052;-74
2023/08/12 04:11:06;;;;;;;10.95;6.18;;;19.30;99.90;;;;;;5065087;28;20532;-76
2023/08/12 04:13:31;;;;;;;12.15;6.25;;;19.40;99.90;;;;;;5060443;28;20056;-75
2023/08/12 04:15:57;;;;;;;11.75;6.32;;;19.40;99.90;;;;;;5033493;28;20079;-77
2023/08/12 04:18:23;;;;;;;13.02;6.35;;;19.40;99.90;;;;;;5026470;28;20055;-77
2023/08/12 04:20:50;;;;;;;12.07;6.70;;;19.40;99.90;;;;;;5059444;28;20079;-75
2023/08/12 04:23:16;;;;;;;11.27;6.68;;;19.40;99.90;;;;;;5042110;28;20494;-75
2023/08/12 04:25:47;;;;;;;15.38;7.40;;;19.40;99.90;;;;;;5056237;28;20043;-75
2023/08/12 04:28:13;;;;;;;15.32;6.82;;;19.40;99.90;;;;;;5057651;28;20048;-74
2023/08/12 04:30:43;;;;;;;13.70;7.03;;;19.40;99.90;;;;;;5043538;28;20151;-76
2023/08/12 04:33:09;;;;;;;12.80;6.25;;;19.50;99.90;;;;;;5045871;28;20048;-73
2023/08/12 04:35:35;;;;;;;12.13;6.55;;;19.40;99.90;;;;;;5061341;28;20181;-76
2023/08/12 04:38:02;;;;;;;15.38;7.28;;;19.20;99.90;;;;;;5044555;28;20190;-76
2023/08/12 04:40:28;;;;;;;11.18;6.90;;;19.40;99.90;;;;;;5044848;28;20564;-75
2023/08/12 04:42:54;;;;;;;11.23;6.15;;;19.40;99.90;;;;;;5059373;28;20051;-74
2023/08/12 04:45:19;;;;;;;13.55;7.70;;;19.50;99.90;;;;;;5049211;28;20053;-74
2023/08/12 04:47:47;;;;;;;11.93;6.93;;;19.50;99.90;;;;;;5031519;28;20127;-74
2023/08/12 04:50:12;;;;;;;11.25;6.65;;;19.50;99.90;;;;;;5013542;28;20425;-77
2023/08/12 04:52:38;;;;;;;13.23;6.93;;;19.50;99.90;;;;;;5053508;28;20047;-75
2023/08/12 04:55:04;;;;;;;13.52;6.53;;;19.50;99.90;;;;;;5034820;28;20078;-73
2023/08/12 04:57:30;;;;;;;15.63;7.30;;;19.90;99.90;;;;;;5043638;28;20051;-77
2023/08/12 04:59:56;;;;;;;9.98;6.03;;;19.50;99.90;;;;;;5032021;28;20078;-75
2023/08/12 05:02:22;;;;;;;14.10;7.05;;;19.50;99.90;;;;;;5057721;28;20044;-76
2023/08/12 05:04:51;;;;;;;14.20;7.15;;;19.60;99.90;;;;;;5055076;28;20036;-75
2023/08/12 05:07:17;;;;;;;16.13;7.10;;;19.60;99.90;;;;;;5046324;28;20128;-76
2023/08/12 05:09:46;;;;;;;16.92;7.47;;;19.60;99.90;;;;;;5056363;28;20066;-73
2023/08/12 05:12:12;;;;;;;13.93;7.10;;;19.60;99.90;;;;;;5030005;28;20593;-76
2023/08/12 05:14:39;;;;;;;14.80;7.20;;;19.60;99.90;;;;;;5062575;28;20044;-74
2023/08/12 05:17:05;;;;;;;16.58;8.15;;;19.60;99.90;;;;;;5055674;28;20127;-76
2023/08/12 05:19:32;;;;;;;13.07;6.95;;;19.70;99.90;;;;;;5051817;28;20100;-75
2023/08/12 05:21:58;;;;;;;15.93;7.50;;;19.70;99.90;;;;;;5041927;28;20221;-75
2023/08/12 05:24:23;;;;;;;14.05;8.05;;;19.70;99.90;;;;;;5046767;28;20525;-74
2023/08/12 05:26:49;;;;;;;16.17;8.10;;;19.80;99.90;;;;;;5053870;28;20144;-74
2023/08/12 05:29:15;;;;;;;14.85;7.55;;;19.70;99.90;;;;;;5067841;28;20048;-73
2023/08/12 05:31:40;;;;;;;15.10;7.18;;;19.70;99.90;;;;;;5043096;28;20055;-73
2023/08/12 05:34:06;;;;;;;17.05;7.85;;;19.80;99.90;;;;;;5073799;28;20064;-76
2023/08/12 05:36:32;;;;;;;14.57;8.20;;;19.70;99.90;;;;;;5064554;28;20249;-73
2023/08/12 05:38:58;;;;;;;14.65;7.57;;;19.80;99.90;;;;;;5057525;28;20054;-75
2023/08/12 05:41:24;;;;;;;16.75;8.55;;;19.80;99.90;;;;;;5058369;28;20048;-74
2023/08/12 05:43:50;;;;;;;15.75;8.52;;;19.80;99.90;;;;;;5058504;28;20661;-75
2023/08/12 05:46:16;;;;;;;18.77;8.48;;;19.80;99.90;;;;;;5056937;28;20044;-76
2023/08/12 05:48:42;;;;;;;15.43;8.15;;;19.80;99.90;;;;;;5043522;28;20479;-73
2023/08/12 05:51:08;;;;;;;17.98;8.55;;;19.80;99.90;;;;;;5046949;28;20054;-74
2023/08/12 05:53:34;;;;;;;14.68;9.60;;;19.80;99.90;;;;;;5058795;28;20059;-74
2023/08/12 05:55:59;;;;;;;14.73;8.75;;;19.80;99.90;;;;;;5045018;28;20201;-75
2023/08/12 05:58:25;;;;;;;17.60;9.93;;;19.80;99.90;;;;;;5046826;28;20081;-74
2023/08/12 06:00:51;;;;;;;17.23;9.20;;;19.80;99.90;;;;;;5060358;28;20066;-75
2023/08/12 06:03:17;;;;;;;15.57;9.52;;;19.90;99.90;;;;;;5030721;28;20562;-75
2023/08/12 06:05:46;;;;;;;18.42;10.20;;;19.90;99.90;;;;;;5055517;28;20270;-76
2023/08/12 06:08:13;;;;;;;16.80;9.57;;;19.90;99.90;;;;;;5048114;28;20054;-73
2023/08/12 06:10:39;;;;;;;21.98;10.30;;;19.90;99.90;;;;;;5032586;28;20082;-77
2023/08/12 06:13:05;;;;;;;18.85;10.40;;;19.90;99.90;;;;;;5059550;28;20040;-76
2023/08/12 06:15:31;;;;;;;19.08;9.98;;;19.90;99.90;;;;;;5042989;28;20039;-75
2023/08/12 06:17:57;;;;;;;19.60;11.07;;;19.90;99.90;;;;;;5054055;28;20044;-74
2023/08/12 06:20:24;;;;;;;19.60;10.38;;;20.00;99.90;;;;;;5058547;28;20099;-74
2023/08/12 06:22:51;;;;;;;21.58;10.63;;;20.00;99.90;;;;;;5053718;28;20142;-75
2023/08/12 06:25:21;;;;;;;18.10;10.43;;;20.00;99.90;;;;;;5072595;28;20130;-77
2023/08/12 06:27:47;;;;;;;20.35;10.90;;;20.00;99.90;;;;;;5067578;28;20043;-75
2023/08/12 06:30:13;;;;;;;16.73;10.95;;;20.00;99.90;;;;;;5063661;28;20471;-74
2023/08/12 06:32:40;;;;;;;20.80;11.68;;;20.00;99.90;;;;;;5060751;28;20134;-75
2023/08/12 06:35:06;;;;;;;17.77;10.98;;;20.10;99.90;;;;;;5062011;28;20036;-75
2023/08/12 06:37:32;;;;;;;17.92;10.38;;;20.10;99.90;;;;;;5060114;28;20047;-74
2023/08/12 06:39:57;;;;;;;14.85;9.35;;;20.20;99.90;;;;;;5065831;28;20096;-74
2023/08/12 06:42:23;;;;;;;18.27;10.52;;;20.20;99.90;;;;;;5066283;28;20111;-75
2023/08/12 06:44:57;;;;;;;16.30;10.77;;;20.30;99.90;;;;;;5032898;28;20048;-78
2023/08/12 06:47:23;;;;;;;18.05;9.90;;;20.30;99.90;;;;;;5045844;28;20553;-76
2023/08/12 06:49:49;;;;;;;16.83;10.07;;;20.30;99.90;;;;;;5060777;28;20080;-74
2023/08/12 06:52:16;;;;;;;17.25;9.82;;;20.30;99.90;;;;;;5061151;28;20160;-76
2023/08/12 06:54:42;;;;;;;18.77;10.25;;;20.40;99.90;;;;;;5036857;28;20048;-76
2023/08/12 06:57:07;;;;;;;15.52;9.38;;;20.40;99.90;;;;;;5047798;28;20048;-77
2023/08/12 06:59:33;;;;;;;14.27;9.40;;;20.40;99.90;;;;;;5058253;28;20044;-75
2023/08/12 07:02:01;;;;;;;21.00;10.07;;;20.40;99.90;;;;;;5060113;28;20083;-74
2023/08/12 07:04:26;;;;;;;17.20;9.05;;;20.40;99.90;;;;;;5058410;28;20080;-74
2023/08/12 07:06:52;;;;;;;15.65;8.85;;;20.50;99.90;;;;;;5073045;28;20131;-74
2023/08/12 07:09:18;;;;;;;17.15;9.30;;;20.50;99.90;;;;;;5057112;28;20071;-78
2023/08/12 07:11:44;;;;;;;14.43;9.15;;;20.50;99.90;;;;;;5078031;28;20446;-74
2023/08/12 07:14:10;;;;;;;21.25;9.63;;;20.50;99.90;;;;;;5076805;28;20593;-74
2023/08/12 07:16:35;;;;;;;15.93;9.40;;;20.40;99.90;;;;;;5063205;28;20060;-76
2023/08/12 07:19:01;;;;;;;15.20;8.27;;;20.40;99.90;;;;;;5072017;28;20389;-76
2023/08/12 07:21:27;;;;;;;14.98;9.88;;;20.40;99.90;;;;;;5066622;28;20043;-75
2023/08/12 07:23:53;;;;;;;19.00;11.15;;;20.40;99.90;;;;;;5043701;28;20047;-75
2023/08/12 07:26:18;;;;;;;19.73;10.45;;;20.40;99.90;;;;;;5092029;28;20044;-74
2023/08/12 07:28:47;;;;;;;15.23;10.10;;;20.30;99.90;;;;;;5055178;28;20513;-77
2023/08/12 07:31:13;;;;;;;16.42;9.57;;;20.30;99.90;;;;;;5073427;28;20048;-74
2023/08/12 07:33:39;;;;;;;15.32;10.73;;;20.30;99.90;;;;;;5073485;28;20047;-74
2023/08/12 07:36:05;;;;;;;18.63;11.38;;;20.30;99.90;;;;;;5055559;28;20131;-77
2023/08/12 07:38:31;;;;;;;18.73;12.23;;;20.30;99.90;;;;;;5071532;28;20090;-77
2023/08/12 07:40:57;;;;;;;21.90;12.32;;;20.30;99.90;;;;;;5047757;28;20132;-74
2023/08/12 07:43:23;;;;;;;20.67;12.55;;;20.30;99.90;;;;;;5057009;28;20044;-76
2023/08/12 07:45:52;;;;;;;17.77;11.80;;;20.40;99.90;;;;;;5065522;28;20071;-74
2023/08/12 07:48:21;;;;;;;22.13;13.65;;;20.40;99.90;;;;;;5063753;28;20051;-74
2023/08/12 07:50:54;;;;;;;20.60;13.90;;;20.40;99.90;;;;;;5048373;28;20036;-77
2023/08/12 07:53:20;;;;;;;23.50;14.75;;;20.40;99.90;;;;;;5072877;28;20131;-75
2023/08/12 07:55:46;;;;;;;21.10;14.55;;;20.40;99.90;;;;;;5073415;28;20529;-75
2023/08/12 07:58:12;;;;;;;23.80;13.45;;;20.50;99.90;;;;;;5070511;28;20093;-75
2023/08/12 08:00:39;;;;;;;25.75;14.55;;;20.50;99.90;;;;;;5045376;28;20051;-74
2023/08/12 08:03:04;;;;;;;20.70;13.93;;;20.50;99.90;;;;;;5064703;28;20053;-77
2023/08/12 08:05:30;;;;;;;20.55;13.70;;;20.40;99.90;;;;;;5059749;28;20056;-74
2023/08/12 08:07:56;;;;;;;21.83;12.85;;;20.50;99.90;;;;;;5071154;28;20051;-77
2023/08/12 08:10:22;;;;;;;22.15;13.57;;;20.50;99.90;;;;;;5073502;28;20519;-75
2023/08/12 08:12:48;;;;;;;19.10;13.00;;;20.40;99.90;;;;;;5057358;28;20044;-75
2023/08/12 08:15:13;;;;;;;19.70;13.35;;;20.40;99.90;;;;;;5057985;28;20055;-74
2023/08/12 08:17:39;;;;;;;22.65;13.85;;;20.40;99.90;;;;;;5060570;28;20058;-79
2023/08/12 08:20:05;;;;;;;27.15;14.10;;;20.40;99.90;;;;;;5067766;28;21815;-77
2023/08/12 08:22:32;;;;;;;18.95;13.32;;;20.40;99.90;;;;;;5058319;28;20059;-76
2023/08/12 08:24:58;;;;;;;22.40;13.98;;;20.40;99.90;;;;;;5073015;28;20044;-76
2023/08/12 08:27:24;;;;;;;19.42;14.13;;;20.40;99.90;;;;;;5059680;28;20119;-78
2023/08/12 08:29:49;;;;;;;22.23;14.02;;;20.40;99.90;;;;;;5058407;28;20127;-74
2023/08/12 08:32:16;;;;;;;21.13;14.07;;;20.40;99.90;;;;;;5064148;28;20479;-75
2023/08/12 08:34:42;;;;;;;20.90;14.45;;;20.40;99.90;;;;;;5054237;28;20044;-77
2023/08/12 08:37:08;;;;;;;23.38;14.77;;;20.40;99.90;;;;;;5052779;28;20393;-75
2023/08/12 08:39:34;;;;;;;24.98;14.65;;;20.40;99.90;;;;;;5053950;28;20056;-77
2023/08/12 08:42:00;;;;;;;23.70;13.20;;;20.40;99.90;;;;;;5072366;28;20040;-74
2023/08/12 08:44:30;;;;;;;23.30;12.25;;;20.30;99.90;;;;;;5064221;28;20047;-75
2023/08/12 08:46:57;;;;;;;14.95;9.27;;;20.30;99.90;;;;;;5063334;28;20254;-75
2023/08/12 08:49:25;;;;;;;13.50;8.93;;;20.20;99.90;;;;;;5054979;28;20489;-75
2023/08/12 08:51:52;;;;;;;17.50;9.45;;;20.10;99.90;;;;;;5063331;28;20047;-76
2023/08/12 08:54:19;;;;;;;16.95;9.40;;;20.00;99.90;;;;;;5068170;28;20056;-77
2023/08/12 08:56:48;;;;;;;15.52;6.03;;;19.90;99.90;;;;;;5048886;28;20059;-74
2023/08/12 08:59:14;;;;;;;7.63;3.40;;;19.80;99.90;;;;;;5063875;28;20075;-75
2023/08/12 09:01:41;;;;;;;7.47;2.70;;;19.60;99.90;;;;;;5068109;28;20047;-76
2023/08/12 09:04:08;;;;;;;5.38;2.42;;;19.40;99.90;;;;;;5072085;28;20176;-74
2023/08/12 09:06:36;;;;;;;8.55;2.65;;;19.30;99.90;;;;;;5055847;28;20738;-76
2023/08/12 09:09:05;;;;;;;6.45;3.03;;;19.30;99.90;;;;;;5060935;28;20072;-74
2023/08/12 09:11:33;;;;;;;7.65;3.28;;;19.30;99.90;;;;;;5073700;28;20063;-74
2023/08/12 09:13:59;;;;;;;6.18;2.42;;;19.30;99.90;;;;;;5058712;28;20051;-75
2023/08/12 09:16:24;;;;;;;7.97;2.65;;;19.30;99.90;;;;;;5056269;28;20825;-75
2023/08/12 09:18:55;;;;;;;7.68;2.08;;;19.20;99.90;;;;;;5057200;28;20443;-73
2023/08/12 09:21:22;;;;;;;5.95;1.90;;;19.20;99.90;;;;;;5048073;28;20047;-74
2023/08/12 09:23:48;;;;;;;8.20;1.80;;;19.10;99.90;;;;;;5061726;28;20563;-74
2023/08/12 09:26:19;;;;;;;6.00;2.15;;;18.90;99.90;;;;;;5056622;28;20040;-75
2023/08/12 09:28:46;;;;;;;7.10;2.15;;;18.90;99.90;;;;;;5051410;28;20118;-74
2023/08/12 09:31:26;;;;;;;4.63;1.75;;;18.80;99.90;;;;;;5055902;28;20075;-74
2023/08/12 09:33:52;;;;;;;5.32;1.77;;;18.70;99.90;;;;;;5071152;28;20043;-76
2023/08/12 09:36:18;;;;;;;5.97;1.95;;;18.70;99.90;;;;;;5058306;28;20659;-74
2023/08/12 09:38:45;;;;;;;5.25;2.10;;;18.60;99.90;;;;;;5055124;28;20044;-75
2023/08/12 09:41:11;;;;;;;9.52;2.15;;;18.60;99.90;;;;;;5068344;28;20051;-74
2023/08/12 09:43:42;;;;;;;9.73;2.10;;;18.50;99.90;;;;;;5070799;28;20247;-75
2023/08/12 09:46:12;;;;;;;8.35;1.98;;;18.50;99.90;;;;;;5058575;28;20071;-75
2023/08/12 09:48:38;;;;;;;7.43;2.17;;;18.50;99.90;;;;;;5056304;28;20056;-74
2023/08/12 09:51:05;;;;;;;11.52;2.50;;;18.50;99.90;;;;;;5077137;28;20803;-77
2023/08/12 09:53:33;;;;;;;9.75;2.88;;;18.60;99.90;;;;;;5071668;28;20048;-76
2023/08/12 09:56:08;;;;;;;9.50;2.45;;;18.60;99.90;;;;;;5054308;28;21579;-74
2023/08/12 09:58:39;;;;;;;7.00;2.10;;;18.60;99.90;;;;;;5051899;28;20058;-77
2023/08/12 10:01:05;;;;;;;13.70;3.38;;;18.60;99.90;;;;;;5066633;28;20051;-78
2023/08/12 10:03:33;;;;;;;9.02;2.45;;;18.60;99.90;;;;;;5071366;28;20407;-75
2023/08/12 10:06:00;;;;;;;10.57;3.08;;;18.70;99.90;;;;;;5071061;28;20150;-77
2023/08/12 10:08:28;;;;;;;8.85;2.65;;;18.70;99.90;;;;;;5072443;28;20054;-75
2023/08/12 10:10:53;;;;;;;11.32;2.55;;;18.70;99.90;;;;;;5057435;28;20044;-75
2023/08/12 10:13:21;;;;;;;10.60;2.55;;;18.70;99.90;;;;;;5044380;28;20044;-75
2023/08/12 10:15:47;;;;;;;10.55;2.67;;;18.80;99.90;;;;;;5070957;28;20448;-78
2023/08/12 10:18:14;;;;;;;9.52;2.42;;;18.80;99.90;;;;;;5070628;28;20043;-75
2023/08/12 10:20:41;;;;;;;5.70;1.95;;;18.80;99.90;;;;;;5054798;28;20401;-76
2023/08/12 10:23:09;;;;;;;4.93;1.95;;;18.70;99.90;;;;;;5074173;28;20052;-76
2023/08/12 10:25:43;;;;;;;5.85;1.33;;;18.70;99.90;;;;;;5066238;28;20160;-75
2023/08/12 10:28:09;;;;;;;6.13;1.70;;;18.60;99.90;;;;;;5042470;28;20036;-75
2023/08/12 10:30:35;;;;;;;4.35;1.75;;;18.50;99.90;;;;;;5075831;28;20051;-77
2023/08/12 10:33:01;;;;;;;3.80;1.30;;;18.50;99.90;;;;;;5093646;28;20394;-76
2023/08/12 10:35:48;;;;;;;3.53;1.77;;;18.40;99.90;;;;;;5059342;28;20051;-76
2023/08/12 10:38:18;;;;;;;3.08;1.40;;;18.40;99.90;;;;;;5062699;28;20069;-75
2023/08/12 10:40:44;;;;;;;2.65;1.40;;;18.40;99.90;;;;;;5069388;28;20476;-77
2023/08/12 10:43:13;;;;;;;2.80;1.70;;;18.30;99.90;;;;;;5057195;28;20072;-75
2023/08/12 10:45:55;;;;;;;5.82;1.80;;;18.30;99.90;;;;;;5060190;28;20507;-78
2023/08/12 10:48:25;;;;;;;5.63;1.65;;;18.60;99.90;;;;;;5052651;28;20050;-76
2023/08/12 10:50:55;;;;;;;5.28;1.55;;;18.40;99.90;;;;;;5067052;28;20048;-78
2023/08/12 10:53:24;;;;;;;4.97;1.42;;;18.40;99.90;;;;;;5071304;28;20092;-75
2023/08/12 10:55:50;;;;;;;4.60;1.50;;;18.40;99.90;;;;;;5075649;28;20110;-75
2023/08/12 10:58:34;;;;;;;9.02;2.60;;;18.50;99.90;;;;;;5049359;28;20055;-77
2023/08/12 11:01:00;;;;;;;5.57;2.40;;;18.60;99.90;;;;;;5076724;28;20059;-74
2023/08/12 11:03:26;;;;;;;7.97;1.90;;;18.60;99.90;;;;;;5072040;28;20118;-77
2023/08/12 11:05:55;;;;;;;6.63;2.33;;;18.60;99.90;;;;;;5074349;28;20104;-75
2023/08/12 11:08:26;;;;;;;8.25;2.42;;;18.70;99.90;;;;;;5058653;28;20055;-76
2023/08/12 11:10:55;;;;;;;6.63;1.80;;;18.70;99.90;;;;;;5066665;28;20067;-76
2023/08/12 11:13:21;;;;;;;6.50;2.10;;;18.80;99.90;;;;;;5079399;28;20052;-75
2023/08/12 11:15:49;;;;;;;11.98;3.22;;;18.90;99.90;;;;;;5072500;28;20051;-77
2023/08/12 11:18:17;;;;;;;6.60;1.98;;;19.00;99.90;;;;;;5076472;28;20091;-74
2023/08/12 11:20:43;;;;;;;5.75;2.20;;;19.10;99.90;;;;;;5060862;28;20108;-77
2023/08/12 11:23:10;;;;;;;7.03;2.30;;;19.20;99.90;;;;;;5065563;28;20083;-75
2023/08/12 11:25:38;;;;;;;8.55;2.30;;;19.40;99.90;;;;;;5079562;28;20138;-77
2023/08/12 11:28:05;;;;;;;8.63;2.65;;;19.50;99.90;;;;;;5074217;28;20054;-76
2023/08/12 11:30:31;;;;;;;10.20;2.42;;;19.90;99.90;;;;;;5075386;28;20129;-75
2023/08/12 11:32:58;;;;;;;8.25;2.45;;;20.30;99.90;;;;;;5069366;28;20047;-76
2023/08/12 11:35:24;;;;;;;7.43;2.67;;;20.70;99.90;;;;;;5042169;28;20044;-76
2023/08/12 11:37:56;;;;;;;8.57;2.60;;;20.90;99.90;;;;;;5071949;28;20432;-76
2023/08/12 11:40:23;;;;;;;5.75;2.20;;;21.20;99.30;;;;;;5063731;28;20565;-75
2023/08/12 11:42:50;;;;;;;8.95;2.38;;;21.50;98.80;;;;;;5075217;28;20211;-75
2023/08/12 11:45:22;;;;;;;8.20;2.78;;;21.80;98.20;;;;;;5064985;28;20457;-75
2023/08/12 11:47:52;;;;;;;5.85;2.03;;;22.10;97.60;;;;;;5058912;28;22226;-77
2023/08/12 11:50:20;;;;;;;8.07;2.20;;;22.20;96.80;;;;;;5073576;28;20039;-76
2023/08/12 11:52:46;;;;;;;8.55;2.95;;;22.10;96.20;;;;;;5075500;28;20044;-74
2023/08/12 11:55:13;;;;;;;5.93;2.30;;;22.10;96.40;;;;;;5055037;28;20047;-76
2023/08/12 11:57:43;;;;;;;8.20;2.50;;;22.10;96.40;;;;;;5052763;28;20070;-72
2023/08/12 12:00:14;;;;;;;8.15;2.47;;;22.40;96.30;;;;;;5071504;28;20132;-74
2023/08/12 12:02:48;;;;;;;7.85;2.13;;;22.60;95.80;;;;;;5072042;28;20035;-75
2023/08/12 12:05:14;;;;;;;10.43;2.40;;;22.60;95.20;;;;;;5074503;28;20044;-75
2023/08/12 12:07:41;;;;;;;7.85;2.45;;;22.70;94.90;;;;;;5071680;28;20573;-74
2023/08/12 12:10:07;;;;;;;7.57;2.47;;;23.00;94.20;;;;;;5073181;28;20394;-74
2023/08/12 12:12:36;;;;;;;10.38;3.00;;;23.20;93.10;;;;;;5059741;28;20051;-75
2023/08/12 12:15:04;;;;;;;7.85;2.40;;;23.50;92.70;;;;;;5063119;28;20052;-73
2023/08/12 12:17:30;;;;;;;7.55;2.47;;;23.60;92.20;;;;;;5056632;28;20043;-75
2023/08/12 12:19:57;;;;;;;10.27;3.08;;;23.70;91.50;;;;;;5035765;28;20478;-75
2023/08/12 12:22:32;;;;;;;8.90;2.42;;;23.90;90.90;;;;;;5065200;28;20116;-74
2023/08/12 12:25:00;;;;;;;8.77;2.78;;;24.10;90.00;;;;;;5066745;28;20044;-74
2023/08/12 12:27:27;;;;;;;9.18;2.60;;;24.20;89.20;;;;;;5051431;28;20040;-74
2023/08/12 12:29:53;;;;;;;7.88;2.20;;;24.40;88.00;;;;;;5052303;28;20087;-75
2023/08/12 12:32:20;;;;;;;7.55;2.67;;;24.50;85.10;;;;;;5056344;28;20043;-74
2023/08/12 12:34:47;;;;;;;7.90;2.60;;;24.60;81.60;;;;;;5058330;28;20104;-75
2023/08/12 12:37:14;;;;;;;6.57;2.10;;;24.60;78.80;;;;;;5059979;28;20040;-77